Yukon, Arkansas
Current Conditions -  °F | °C
As of 10:00 AM on Sunday 23 Nov 2014 (Local Time) from KLLQ Reporting Station
Moderate Rain Moderate Rain  
Wind Chill: 60°   Ceiling: 500
Heat Index: 60°   Visibility: 2.5mi
Dew Point: 59°   Wind: 5mph
Humidity: 96%   Direction: 30°NNE
Pressure: 29.53"   Gusts: NA
Location:  33.7466°N, 91.5753°W
Report Text: KLLQ 231600Z AUTO 03004KT 2 1/2SM RA BR BKN005 OVC009 16/15 A2953 RMK AO2 PRESFR P0002 T01560150
Loading
Personal Weather Stations






























Interactive Weather Map New forecast layout! Learn more

10-Day Weather Forecast

Advertisements
Track Severe Weather on mobile